sensor_id;sensor_type;location;lat;lon;timestamp;temperature;humidity
12893;DHT22;6514;48.606;9.222;2023-04-01T00:01:27;7.60;99.90
12893;DHT22;6514;48.606;9.222;2023-04-01T00:03:55;7.70;99.90
12893;DHT22;6514;48.606;9.222;2023-04-01T00:06:23;7.70;99.90
12893;DHT22;6514;48.606;9.222;2023-04-01T00:08:50;7.70;99.90
12893;DHT22;6514;48.606;9.222;2023-04-01T00:11:18;7.50;99.90
12893;DHT22;6514;48.606;9.222;2023-04-01T00:13:45;7.70;99.90
12893;DHT22;6514;48.606;9.222;2023-04-01T00:16:12;7.80;99.90
12893;DHT22;6514;48.606;9.222;2023-04-01T00:18:38;7.80;99.90
12893;DHT22;6514;48.606;9.222;2023-04-01T00:21:07;7.70;99.90
12893;DHT22;6514;48.606;9.222;2023-04-01T00:23:34;7.70;99.90
12893;DHT22;6514;48.606;9.222;2023-04-01T00:26:02;7.70;99.90
12893;DHT22;6514;48.606;9.222;2023-04-01T00:28:29;7.60;99.90
12893;DHT22;6514;48.606;9.222;2023-04-01T00:30:56;7.60;99.90
12893;DHT22;6514;48.606;9.222;2023-04-01T00:33:23;7.60;99.90
12893;DHT22;6514;48.606;9.222;2023-04-01T00:35:50;7.60;99.90
12893;DHT22;6514;48.606;9.222;2023-04-01T00:38:18;7.60;99.90
12893;DHT22;6514;48.606;9.222;2023-04-01T00:40:46;7.60;99.90
12893;DHT22;6514;48.606;9.222;2023-04-01T00:43:14;7.60;99.90
12893;DHT22;6514;48.606;9.222;2023-04-01T00:45:45;7.60;99.90
12893;DHT22;6514;48.606;9.222;2023-04-01T00:48:15;7.60;99.90
12893;DHT22;6514;48.606;9.222;2023-04-01T00:50:46;7.60;99.90
12893;DHT22;6514;48.606;9.222;2023-04-01T00:53:14;7.50;99.90
12893;DHT22;6514;48.606;9.222;2023-04-01T00:55:55;7.50;99.90
12893;DHT22;6514;48.606;9.222;2023-04-01T00:58:24;7.50;99.90
12893;DHT22;6514;48.606;9.222;2023-04-01T01:00:54;7.50;99.90
12893;DHT22;6514;48.606;9.222;2023-04-01T01:03:21;7.50;99.90
12893;DHT22;6514;48.606;9.222;2023-04-01T01:06:07;7.40;99.90
12893;DHT22;6514;48.606;9.222;2023-04-01T01:08:45;7.40;99.90
12893;DHT22;6514;48.606;9.222;2023-04-01T01:11:20;7.40;99.90
12893;DHT22;6514;48.606;9.222;2023-04-01T01:13:53;7.40;99.90
12893;DHT22;6514;48.606;9.222;2023-04-01T01:16:26;7.40;99.90
12893;DHT22;6514;48.606;9.222;2023-04-01T01:19:00;7.50;99.90
12893;DHT22;6514;48.606;9.222;2023-04-01T01:24:42;7.50;99.90
12893;DHT22;6514;48.606;9.222;2023-04-01T01:27:18;7.50;99.90
12893;DHT22;6514;48.606;9.222;2023-04-01T01:35:50;7.60;99.90
12893;DHT22;6514;48.606;9.222;2023-04-01T01:38:21;7.60;99.90
12893;DHT22;6514;48.606;9.222;2023-04-01T01:40:50;7.60;99.90
12893;DHT22;6514;48.606;9.222;2023-04-01T01:43:22;7.60;99.90
12893;DHT22;6514;48.606;9.222;2023-04-01T01:45:52;7.60;99.90
12893;DHT22;6514;48.606;9.222;2023-04-01T01:48:21;7.60;99.90
12893;DHT22;6514;48.606;9.222;2023-04-01T01:50:50;7.60;99.90
12893;DHT22;6514;48.606;9.222;2023-04-01T01:53:17;7.60;99.90
12893;DHT22;6514;48.606;9.222;2023-04-01T01:55:46;7.60;99.90
12893;DHT22;6514;48.606;9.222;2023-04-01T01:58:17;7.50;99.90
12893;DHT22;6514;48.606;9.222;2023-04-01T02:00:50;7.50;99.90
12893;DHT22;6514;48.606;9.222;2023-04-01T02:03:20;7.50;99.90
12893;DHT22;6514;48.606;9.222;2023-04-01T02:05:49;7.40;99.90
12893;DHT22;6514;48.606;9.222;2023-04-01T02:08:21;7.50;99.90
12893;DHT22;6514;48.606;9.222;2023-04-01T02:10:54;7.40;99.90
12893;DHT22;6514;48.606;9.222;2023-04-01T02:13:26;7.50;99.90
12893;DHT22;6514;48.606;9.222;2023-04-01T02:15:59;7.50;99.90
12893;DHT22;6514;48.606;9.222;2023-04-01T02:18:28;7.50;99.90
12893;DHT22;6514;48.606;9.222;2023-04-01T02:20:59;7.50;99.90
12893;DHT22;6514;48.606;9.222;2023-04-01T02:23:28;7.50;99.90
12893;DHT22;6514;48.606;9.222;2023-04-01T02:25:55;7.40;99.90
12893;DHT22;6514;48.606;9.222;2023-04-01T02:28:23;7.50;99.90
12893;DHT22;6514;48.606;9.222;2023-04-01T02:30:50;7.40;99.90
12893;DHT22;6514;48.606;9.222;2023-04-01T02:33:19;7.40;99.90
12893;DHT22;6514;48.606;9.222;2023-04-01T02:35:47;7.40;99.90
12893;DHT22;6514;48.606;9.222;2023-04-01T02:38:15;7.30;99.90
12893;DHT22;6514;48.606;9.222;2023-04-01T02:40:44;7.30;99.90
12893;DHT22;6514;48.606;9.222;2023-04-01T02:43:12;7.40;99.90
12893;DHT22;6514;48.606;9.222;2023-04-01T02:45:39;7.40;99.90
12893;DHT22;6514;48.606;9.222;2023-04-01T02:48:06;7.40;99.90
12893;DHT22;6514;48.606;9.222;2023-04-01T02:50:33;7.40;99.90
12893;DHT22;6514;48.606;9.222;2023-04-01T02:53:00;7.40;99.90
12893;DHT22;6514;48.606;9.222;2023-04-01T02:55:29;7.40;99.90
12893;DHT22;6514;48.606;9.222;2023-04-01T02:57:56;7.40;99.90
12893;DHT22;6514;48.606;9.222;2023-04-01T03:00:23;7.30;99.90
12893;DHT22;6514;48.606;9.222;2023-04-01T03:02:51;7.30;99.90
12893;DHT22;6514;48.606;9.222;2023-04-01T03:05:18;7.20;99.90
12893;DHT22;6514;48.606;9.222;2023-04-01T03:07:45;7.20;99.90
12893;DHT22;6514;48.606;9.222;2023-04-01T03:10:12;7.10;99.90
12893;DHT22;6514;48.606;9.222;2023-04-01T03:12:40;7.10;99.90
12893;DHT22;6514;48.606;9.222;2023-04-01T03:15:10;7.10;99.90
12893;DHT22;6514;48.606;9.222;2023-04-01T03:17:37;7.00;99.90
12893;DHT22;6514;48.606;9.222;2023-04-01T03:20:04;7.00;99.90
12893;DHT22;6514;48.606;9.222;2023-04-01T03:22:31;6.90;99.90
12893;DHT22;6514;48.606;9.222;2023-04-01T03:24:58;6.80;99.90
12893;DHT22;6514;48.606;9.222;2023-04-01T03:27:25;6.80;99.90
12893;DHT22;6514;48.606;9.222;2023-04-01T03:29:53;6.70;99.90
12893;DHT22;6514;48.606;9.222;2023-04-01T03:32:20;6.70;99.90
12893;DHT22;6514;48.606;9.222;2023-04-01T03:34:47;6.70;99.90
12893;DHT22;6514;48.606;9.222;2023-04-01T03:37:14;6.70;99.90
12893;DHT22;6514;48.606;9.222;2023-04-01T03:39:41;6.70;99.90
12893;DHT22;6514;48.606;9.222;2023-04-01T03:42:08;6.70;99.90
12893;DHT22;6514;48.606;9.222;2023-04-01T03:44:35;6.60;99.90
12893;DHT22;6514;48.606;9.222;2023-04-01T03:47:03;6.60;99.90
12893;DHT22;6514;48.606;9.222;2023-04-01T03:49:30;6.60;99.90
12893;DHT22;6514;48.606;9.222;2023-04-01T03:51:58;6.60;99.90
12893;DHT22;6514;48.606;9.222;2023-04-01T03:54:25;6.50;99.90
12893;DHT22;6514;48.606;9.222;2023-04-01T03:56:51;6.50;99.90
12893;DHT22;6514;48.606;9.222;2023-04-01T03:59:18;6.50;99.90
12893;DHT22;6514;48.606;9.222;2023-04-01T04:01:46;6.60;99.90
12893;DHT22;6514;48.606;9.222;2023-04-01T04:04:19;6.60;99.90
12893;DHT22;6514;48.606;9.222;2023-04-01T04:06:46;6.50;99.90
12893;DHT22;6514;48.606;9.222;2023-04-01T04:09:13;6.60;99.90
12893;DHT22;6514;48.606;9.222;2023-04-01T04:11:40;6.50;99.90
12893;DHT22;6514;48.606;9.222;2023-04-01T04:14:07;6.60;99.90
12893;DHT22;6514;48.606;9.222;2023-04-01T04:16:35;6.60;99.90
12893;DHT22;6514;48.606;9.222;2023-04-01T04:19:03;6.40;99.90
12893;DHT22;6514;48.606;9.222;2023-04-01T04:21:31;6.50;99.90
12893;DHT22;6514;48.606;9.222;2023-04-01T04:23:58;6.40;99.90
12893;DHT22;6514;48.606;9.222;2023-04-01T04:26:26;6.40;99.90
12893;DHT22;6514;48.606;9.222;2023-04-01T04:28:54;6.30;99.90
12893;DHT22;6514;48.606;9.222;2023-04-01T04:31:22;6.30;99.90
12893;DHT22;6514;48.606;9.222;2023-04-01T04:33:49;6.30;99.90
12893;DHT22;6514;48.606;9.222;2023-04-01T04:36:17;6.20;99.90
12893;DHT22;6514;48.606;9.222;2023-04-01T04:38:45;6.20;99.90
12893;DHT22;6514;48.606;9.222;2023-04-01T04:41:13;6.10;99.90
12893;DHT22;6514;48.606;9.222;2023-04-01T04:43:40;6.10;99.90
12893;DHT22;6514;48.606;9.222;2023-04-01T04:46:08;6.10;99.90
12893;DHT22;6514;48.606;9.222;2023-04-01T04:48:36;6.10;99.90
12893;DHT22;6514;48.606;9.222;2023-04-01T04:51:03;6.20;99.90
12893;DHT22;6514;48.606;9.222;2023-04-01T04:53:30;6.20;99.90
12893;DHT22;6514;48.606;9.222;2023-04-01T04:55:58;6.20;99.90
12893;DHT22;6514;48.606;9.222;2023-04-01T04:58:25;6.20;99.90
12893;DHT22;6514;48.606;9.222;2023-04-01T05:00:52;6.30;99.90
12893;DHT22;6514;48.606;9.222;2023-04-01T05:03:18;6.40;99.90
12893;DHT22;6514;48.606;9.222;2023-04-01T05:05:49;6.40;99.90
12893;DHT22;6514;48.606;9.222;2023-04-01T05:08:17;6.40;99.90
12893;DHT22;6514;48.606;9.222;2023-04-01T05:10:44;6.40;99.90
12893;DHT22;6514;48.606;9.222;2023-04-01T05:13:12;6.50;99.90
12893;DHT22;6514;48.606;9.222;2023-04-01T05:15:39;6.60;99.90
12893;DHT22;6514;48.606;9.222;2023-04-01T05:18:06;6.60;99.90
12893;DHT22;6514;48.606;9.222;2023-04-01T05:20:33;6.70;99.90
12893;DHT22;6514;48.606;9.222;2023-04-01T05:23:00;6.80;99.90
12893;DHT22;6514;48.606;9.222;2023-04-01T05:25:27;6.80;99.90
12893;DHT22;6514;48.606;9.222;2023-04-01T05:27:54;6.90;99.90
12893;DHT22;6514;48.606;9.222;2023-04-01T05:30:22;6.90;99.90
12893;DHT22;6514;48.606;9.222;2023-04-01T05:32:49;7.00;99.90
12893;DHT22;6514;48.606;9.222;2023-04-01T05:35:26;7.10;99.90
12893;DHT22;6514;48.606;9.222;2023-04-01T05:37:53;7.20;99.90
12893;DHT22;6514;48.606;9.222;2023-04-01T05:40:20;7.20;99.90
12893;DHT22;6514;48.606;9.222;2023-04-01T05:42:46;7.30;99.90
12893;DHT22;6514;48.606;9.222;2023-04-01T05:45:13;7.30;99.90
12893;DHT22;6514;48.606;9.222;2023-04-01T05:47:42;7.40;99.90
12893;DHT22;6514;48.606;9.222;2023-04-01T05:50:09;7.50;99.90
12893;DHT22;6514;48.606;9.222;2023-04-01T05:52:37;7.50;99.90
12893;DHT22;6514;48.606;9.222;2023-04-01T05:55:05;7.60;99.90
12893;DHT22;6514;48.606;9.222;2023-04-01T05:57:31;7.60;99.90
12893;DHT22;6514;48.606;9.222;2023-04-01T05:59:58;7.70;99.90
12893;DHT22;6514;48.606;9.222;2023-04-01T06:02:25;7.70;99.90
12893;DHT22;6514;48.606;9.222;2023-04-01T06:05:02;7.70;99.90
12893;DHT22;6514;48.606;9.222;2023-04-01T06:07:29;7.80;99.90
12893;DHT22;6514;48.606;9.222;2023-04-01T06:09:56;7.80;99.90
12893;DHT22;6514;48.606;9.222;2023-04-01T06:12:40;7.90;99.90
12893;DHT22;6514;48.606;9.222;2023-04-01T06:15:20;7.90;99.90
12893;DHT22;6514;48.606;9.222;2023-04-01T06:18:03;8.00;99.90
12893;DHT22;6514;48.606;9.222;2023-04-01T06:20:39;8.00;99.90
12893;DHT22;6514;48.606;9.222;2023-04-01T06:23:40;8.10;99.90
12893;DHT22;6514;48.606;9.222;2023-04-01T06:26:20;8.20;99.90
12893;DHT22;6514;48.606;9.222;2023-04-01T06:29:11;8.30;99.90
12893;DHT22;6514;48.606;9.222;2023-04-01T06:31:56;8.40;99.90
12893;DHT22;6514;48.606;9.222;2023-04-01T06:34:50;8.50;99.90
12893;DHT22;6514;48.606;9.222;2023-04-01T06:37:32;8.50;99.90
12893;DHT22;6514;48.606;9.222;2023-04-01T06:40:19;8.60;99.90
12893;DHT22;6514;48.606;9.222;2023-04-01T06:43:00;8.60;99.90
12893;DHT22;6514;48.606;9.222;2023-04-01T06:45:38;8.70;99.90
12893;DHT22;6514;48.606;9.222;2023-04-01T06:48:18;8.80;99.90
12893;DHT22;6514;48.606;9.222;2023-04-01T06:50:54;8.80;99.90
12893;DHT22;6514;48.606;9.222;2023-04-01T06:53:33;8.80;99.90
12893;DHT22;6514;48.606;9.222;2023-04-01T06:56:03;8.80;99.90
12893;DHT22;6514;48.606;9.222;2023-04-01T06:58:37;8.90;99.90
12893;DHT22;6514;48.606;9.222;2023-04-01T07:01:07;9.00;99.90
12893;DHT22;6514;48.606;9.222;2023-04-01T07:03:38;9.00;99.90
12893;DHT22;6514;48.606;9.222;2023-04-01T07:06:10;9.00;99.90
12893;DHT22;6514;48.606;9.222;2023-04-01T07:08:42;9.10;99.90
12893;DHT22;6514;48.606;9.222;2023-04-01T07:11:14;9.10;99.90
12893;DHT22;6514;48.606;9.222;2023-04-01T07:13:47;9.20;99.90
12893;DHT22;6514;48.606;9.222;2023-04-01T07:16:18;9.20;99.90
12893;DHT22;6514;48.606;9.222;2023-04-01T07:18:49;9.20;99.90
12893;DHT22;6514;48.606;9.222;2023-04-01T07:21:28;9.20;99.90
12893;DHT22;6514;48.606;9.222;2023-04-01T07:24:01;9.20;99.90
12893;DHT22;6514;48.606;9.222;2023-04-01T07:26:30;9.30;99.90
12893;DHT22;6514;48.606;9.222;2023-04-01T07:28:58;9.30;99.90
12893;DHT22;6514;48.606;9.222;2023-04-01T07:31:36;9.30;99.90
12893;DHT22;6514;48.606;9.222;2023-04-01T07:34:09;9.30;99.90
12893;DHT22;6514;48.606;9.222;2023-04-01T07:36:43;9.30;99.90
12893;DHT22;6514;48.606;9.222;2023-04-01T07:39:22;9.20;99.90
12893;DHT22;6514;48.606;9.222;2023-04-01T07:41:56;9.30;99.90
12893;DHT22;6514;48.606;9.222;2023-04-01T07:44:29;9.20;99.90
12893;DHT22;6514;48.606;9.222;2023-04-01T07:47:10;9.30;99.90
12893;DHT22;6514;48.606;9.222;2023-04-01T07:49:43;9.30;99.90
12893;DHT22;6514;48.606;9.222;2023-04-01T07:52:17;9.30;99.90
12893;DHT22;6514;48.606;9.222;2023-04-01T07:54:51;9.30;99.90
12893;DHT22;6514;48.606;9.222;2023-04-01T07:57:22;9.40;99.90
12893;DHT22;6514;48.606;9.222;2023-04-01T07:59:58;9.40;99.90
12893;DHT22;6514;48.606;9.222;2023-04-01T08:02:35;9.50;99.90
12893;DHT22;6514;48.606;9.222;2023-04-01T08:05:14;9.60;99.90
12893;DHT22;6514;48.606;9.222;2023-04-01T08:07:47;9.60;99.90
12893;DHT22;6514;48.606;9.222;2023-04-01T08:10:19;9.60;99.90
12893;DHT22;6514;48.606;9.222;2023-04-01T08:12:56;9.60;99.90
12893;DHT22;6514;48.606;9.222;2023-04-01T08:15:27;9.50;99.90
12893;DHT22;6514;48.606;9.222;2023-04-01T08:18:06;9.50;99.90
12893;DHT22;6514;48.606;9.222;2023-04-01T08:20:41;9.50;99.90
12893;DHT22;6514;48.606;9.222;2023-04-01T08:23:13;9.40;99.90
12893;DHT22;6514;48.606;9.222;2023-04-01T08:25:46;9.40;99.90
12893;DHT22;6514;48.606;9.222;2023-04-01T08:28:19;9.30;99.90
12893;DHT22;6514;48.606;9.222;2023-04-01T08:30:51;9.30;99.90
12893;DHT22;6514;48.606;9.222;2023-04-01T08:33:23;9.30;99.90
12893;DHT22;6514;48.606;9.222;2023-04-01T08:35:53;9.20;99.90
12893;DHT22;6514;48.606;9.222;2023-04-01T08:38:24;9.30;99.90
12893;DHT22;6514;48.606;9.222;2023-04-01T08:41:06;9.30;99.90
12893;DHT22;6514;48.606;9.222;2023-04-01T08:43:48;9.40;99.90
12893;DHT22;6514;48.606;9.222;2023-04-01T08:49:43;9.50;99.90
12893;DHT22;6514;48.606;9.222;2023-04-01T08:52:21;9.40;99.90
12893;DHT22;6514;48.606;9.222;2023-04-01T08:55:02;9.20;99.90
12893;DHT22;6514;48.606;9.222;2023-04-01T08:57:41;9.10;99.90
12893;DHT22;6514;48.606;9.222;2023-04-01T09:00:15;9.10;99.90
12893;DHT22;6514;48.606;9.222;2023-04-01T09:06:00;9.00;99.90
12893;DHT22;6514;48.606;9.222;2023-04-01T09:08:41;8.90;99.90
12893;DHT22;6514;48.606;9.222;2023-04-01T09:11:20;8.90;99.90
12893;DHT22;6514;48.606;9.222;2023-04-01T09:14:07;9.00;99.90
12893;DHT22;6514;48.606;9.222;2023-04-01T09:17:01;9.00;99.90
12893;DHT22;6514;48.606;9.222;2023-04-01T09:19:50;9.10;99.90
12893;DHT22;6514;48.606;9.222;2023-04-01T09:22:32;9.40;99.90
12893;DHT22;6514;48.606;9.222;2023-04-01T09:25:23;9.60;99.90
12893;DHT22;6514;48.606;9.222;2023-04-01T09:27:57;9.80;99.90
12893;DHT22;6514;48.606;9.222;2023-04-01T09:30:52;10.00;99.90
12893;DHT22;6514;48.606;9.222;2023-04-01T09:36:38;10.40;99.90
12893;DHT22;6514;48.606;9.222;2023-04-01T09:44:58;10.60;99.90
12893;DHT22;6514;48.606;9.222;2023-04-01T09:47:42;10.40;99.90
12893;DHT22;6514;48.606;9.222;2023-04-01T09:50:23;10.40;99.90
12893;DHT22;6514;48.606;9.222;2023-04-01T09:53:03;10.30;99.90
12893;DHT22;6514;48.606;9.222;2023-04-01T09:56:08;10.20;99.90
12893;DHT22;6514;48.606;9.222;2023-04-01T10:11:22;10.00;99.90
12893;DHT22;6514;48.606;9.222;2023-04-01T10:14:11;9.80;99.90
12893;DHT22;6514;48.606;9.222;2023-04-01T10:20:18;9.80;99.90
12893;DHT22;6514;48.606;9.222;2023-04-01T10:23:08;9.80;99.90
12893;DHT22;6514;48.606;9.222;2023-04-01T10:29:10;9.90;99.90
12893;DHT22;6514;48.606;9.222;2023-04-01T10:32:12;9.90;99.90
12893;DHT22;6514;48.606;9.222;2023-04-01T10:41:22;9.80;99.90
12893;DHT22;6514;48.606;9.222;2023-04-01T10:44:27;10.00;99.90
12893;DHT22;6514;48.606;9.222;2023-04-01T10:47:26;10.20;99.90
12893;DHT22;6514;48.606;9.222;2023-04-01T10:50:24;10.30;99.90
12893;DHT22;6514;48.606;9.222;2023-04-01T10:59:51;10.60;99.90
12893;DHT22;6514;48.606;9.222;2023-04-01T11:06:11;11.10;99.90
12893;DHT22;6514;48.606;9.222;2023-04-01T11:15:27;11.30;99.90
12893;DHT22;6514;48.606;9.222;2023-04-01T11:18:39;11.40;99.90
12893;DHT22;6514;48.606;9.222;2023-04-01T11:21:41;11.40;99.90
12893;DHT22;6514;48.606;9.222;2023-04-01T11:27:47;11.60;99.90
12893;DHT22;6514;48.606;9.222;2023-04-01T11:30:24;11.50;99.90
12893;DHT22;6514;48.606;9.222;2023-04-01T11:33:00;11.30;99.90
12893;DHT22;6514;48.606;9.222;2023-04-01T11:38:45;11.00;99.90
12893;DHT22;6514;48.606;9.222;2023-04-01T11:41:26;10.80;99.90
12893;DHT22;6514;48.606;9.222;2023-04-01T11:44:09;10.60;99.90
12893;DHT22;6514;48.606;9.222;2023-04-01T11:46:46;10.60;99.90
12893;DHT22;6514;48.606;9.222;2023-04-01T11:49:29;10.50;99.90
12893;DHT22;6514;48.606;9.222;2023-04-01T11:52:11;10.50;99.90
12893;DHT22;6514;48.606;9.222;2023-04-01T11:55:01;10.60;99.90
12893;DHT22;6514;48.606;9.222;2023-04-01T11:57:46;10.80;99.90
12893;DHT22;6514;48.606;9.222;2023-04-01T12:00:28;11.00;99.90
12893;DHT22;6514;48.606;9.222;2023-04-01T12:03:10;11.10;99.90
12893;DHT22;6514;48.606;9.222;2023-04-01T12:05:48;11.10;99.90
12893;DHT22;6514;48.606;9.222;2023-04-01T12:08:28;11.10;99.90
12893;DHT22;6514;48.606;9.222;2023-04-01T12:11:03;11.30;99.90
12893;DHT22;6514;48.606;9.222;2023-04-01T12:13:40;11.50;99.90
12893;DHT22;6514;48.606;9.222;2023-04-01T12:16:36;11.50;99.90
12893;DHT22;6514;48.606;9.222;2023-04-01T12:19:13;11.60;99.90
12893;DHT22;6514;48.606;9.222;2023-04-01T12:21:48;11.50;99.90
12893;DHT22;6514;48.606;9.222;2023-04-01T12:24:45;11.40;99.90
12893;DHT22;6514;48.606;9.222;2023-04-01T12:27:23;11.30;99.90
12893;DHT22;6514;48.606;9.222;2023-04-01T12:30:30;11.40;99.90
12893;DHT22;6514;48.606;9.222;2023-04-01T12:33:19;11.50;99.90
12893;DHT22;6514;48.606;9.222;2023-04-01T12:35:58;11.70;99.90
12893;DHT22;6514;48.606;9.222;2023-04-01T12:38:34;11.90;99.90
12893;DHT22;6514;48.606;9.222;2023-04-01T12:41:19;12.00;99.90
12893;DHT22;6514;48.606;9.222;2023-04-01T12:44:10;12.10;99.90
12893;DHT22;6514;48.606;9.222;2023-04-01T12:46:49;12.20;99.90
12893;DHT22;6514;48.606;9.222;2023-04-01T12:49:40;12.30;99.90
12893;DHT22;6514;48.606;9.222;2023-04-01T12:52:15;12.10;99.90
12893;DHT22;6514;48.606;9.222;2023-04-01T12:55:18;12.10;99.90
12893;DHT22;6514;48.606;9.222;2023-04-01T13:00:56;12.00;99.90
12893;DHT22;6514;48.606;9.222;2023-04-01T13:06:37;12.10;99.90
12893;DHT22;6514;48.606;9.222;2023-04-01T13:09:14;12.10;99.90
12893;DHT22;6514;48.606;9.222;2023-04-01T13:11:56;12.50;99.90
12893;DHT22;6514;48.606;9.222;2023-04-01T13:14:40;12.80;99.90
12893;DHT22;6514;48.606;9.222;2023-04-01T13:17:14;12.90;99.90
12893;DHT22;6514;48.606;9.222;2023-04-01T13:19:48;13.20;99.90
12893;DHT22;6514;48.606;9.222;2023-04-01T13:22:20;13.30;99.90
12893;DHT22;6514;48.606;9.222;2023-04-01T13:24:57;13.40;99.90
12893;DHT22;6514;48.606;9.222;2023-04-01T13:27:33;13.50;99.90
12893;DHT22;6514;48.606;9.222;2023-04-01T13:30:19;13.50;99.90
12893;DHT22;6514;48.606;9.222;2023-04-01T13:32:54;13.50;99.90
12893;DHT22;6514;48.606;9.222;2023-04-01T13:35:34;13.30;99.90
12893;DHT22;6514;48.606;9.222;2023-04-01T13:38:37;13.20;99.90
12893;DHT22;6514;48.606;9.222;2023-04-01T13:41:15;13.00;99.90
12893;DHT22;6514;48.606;9.222;2023-04-01T13:43:51;12.80;99.90
12893;DHT22;6514;48.606;9.222;2023-04-01T13:46:43;12.90;99.90
12893;DHT22;6514;48.606;9.222;2023-04-01T13:49:47;12.70;99.90
12893;DHT22;6514;48.606;9.222;2023-04-01T13:52:42;12.50;99.90
12893;DHT22;6514;48.606;9.222;2023-04-01T13:55:44;12.60;99.90
12893;DHT22;6514;48.606;9.222;2023-04-01T14:01:52;12.40;99.90
12893;DHT22;6514;48.606;9.222;2023-04-01T14:04:38;12.30;99.90
12893;DHT22;6514;48.606;9.222;2023-04-01T14:07:37;12.20;99.90
12893;DHT22;6514;48.606;9.222;2023-04-01T14:10:17;12.10;99.90
12893;DHT22;6514;48.606;9.222;2023-04-01T14:12:50;11.90;99.90
12893;DHT22;6514;48.606;9.222;2023-04-01T14:15:38;11.70;99.90
12893;DHT22;6514;48.606;9.222;2023-04-01T14:21:20;11.60;99.90
12893;DHT22;6514;48.606;9.222;2023-04-01T14:24:05;11.60;99.90
12893;DHT22;6514;48.606;9.222;2023-04-01T14:29:46;11.80;99.90
12893;DHT22;6514;48.606;9.222;2023-04-01T14:32:24;11.80;99.90
12893;DHT22;6514;48.606;9.222;2023-04-01T14:35:18;11.80;99.90
12893;DHT22;6514;48.606;9.222;2023-04-01T14:38:05;11.60;99.90
12893;DHT22;6514;48.606;9.222;2023-04-01T14:40:54;11.50;99.90
12893;DHT22;6514;48.606;9.222;2023-04-01T14:49:35;11.20;99.90
12893;DHT22;6514;48.606;9.222;2023-04-01T14:52:13;11.20;99.90
12893;DHT22;6514;48.606;9.222;2023-04-01T14:54:43;11.20;99.90
12893;DHT22;6514;48.606;9.222;2023-04-01T14:57:12;11.30;99.90
12893;DHT22;6514;48.606;9.222;2023-04-01T14:59:40;11.40;99.90
12893;DHT22;6514;48.606;9.222;2023-04-01T15:02:18;11.40;99.90
12893;DHT22;6514;48.606;9.222;2023-04-01T15:04:58;11.40;99.90
12893;DHT22;6514;48.606;9.222;2023-04-01T15:07:55;11.60;99.90
12893;DHT22;6514;48.606;9.222;2023-04-01T15:10:42;11.60;99.90
12893;DHT22;6514;48.606;9.222;2023-04-01T15:13:13;11.70;99.90
12893;DHT22;6514;48.606;9.222;2023-04-01T15:15:56;11.60;99.90
12893;DHT22;6514;48.606;9.222;2023-04-01T15:18:36;11.50;99.90
12893;DHT22;6514;48.606;9.222;2023-04-01T15:21:21;11.60;99.90
12893;DHT22;6514;48.606;9.222;2023-04-01T15:24:00;11.60;99.90
12893;DHT22;6514;48.606;9.222;2023-04-01T15:29:39;11.60;99.90
12893;DHT22;6514;48.606;9.222;2023-04-01T15:32:17;11.60;99.90
12893;DHT22;6514;48.606;9.222;2023-04-01T15:34:50;11.50;99.90
12893;DHT22;6514;48.606;9.222;2023-04-01T15:37:27;11.40;99.90
12893;DHT22;6514;48.606;9.222;2023-04-01T15:40:06;11.30;99.90
12893;DHT22;6514;48.606;9.222;2023-04-01T15:42:59;11.20;99.90
12893;DHT22;6514;48.606;9.222;2023-04-01T15:45:39;11.00;99.90
12893;DHT22;6514;48.606;9.222;2023-04-01T15:48:23;11.00;99.90
12893;DHT22;6514;48.606;9.222;2023-04-01T15:51:02;10.90;99.90
12893;DHT22;6514;48.606;9.222;2023-04-01T15:53:43;10.90;99.90
12893;DHT22;6514;48.606;9.222;2023-04-01T15:56:36;10.90;99.90
12893;DHT22;6514;48.606;9.222;2023-04-01T15:59:17;10.80;99.90
12893;DHT22;6514;48.606;9.222;2023-04-01T16:01:52;10.80;99.90
12893;DHT22;6514;48.606;9.222;2023-04-01T16:04:36;10.70;99.90
12893;DHT22;6514;48.606;9.222;2023-04-01T16:07:19;10.70;99.90
12893;DHT22;6514;48.606;9.222;2023-04-01T16:10:04;10.70;99.90
12893;DHT22;6514;48.606;9.222;2023-04-01T16:12:47;10.70;99.90
12893;DHT22;6514;48.606;9.222;2023-04-01T16:15:24;10.60;99.90
12893;DHT22;6514;48.606;9.222;2023-04-01T16:18:17;10.50;99.90
12893;DHT22;6514;48.606;9.222;2023-04-01T16:20:53;10.50;99.90
12893;DHT22;6514;48.606;9.222;2023-04-01T16:23:26;10.50;99.90
12893;DHT22;6514;48.606;9.222;2023-04-01T16:26:05;10.50;99.90
12893;DHT22;6514;48.606;9.222;2023-04-01T16:28:38;10.60;99.90
12893;DHT22;6514;48.606;9.222;2023-04-01T16:31:10;10.50;99.90
12893;DHT22;6514;48.606;9.222;2023-04-01T16:33:44;10.50;99.90
12893;DHT22;6514;48.606;9.222;2023-04-01T16:36:21;10.50;99.90
12893;DHT22;6514;48.606;9.222;2023-04-01T16:39:06;10.50;99.90
12893;DHT22;6514;48.606;9.222;2023-04-01T16:41:38;10.50;99.90
12893;DHT22;6514;48.606;9.222;2023-04-01T16:44:17;10.40;99.90
12893;DHT22;6514;48.606;9.222;2023-04-01T16:46:47;10.40;99.90
12893;DHT22;6514;48.606;9.222;2023-04-01T16:49:32;10.40;99.90
12893;DHT22;6514;48.606;9.222;2023-04-01T16:52:30;10.30;99.90
12893;DHT22;6514;48.606;9.222;2023-04-01T16:55:01;10.30;99.90
12893;DHT22;6514;48.606;9.222;2023-04-01T16:57:36;10.30;99.90
12893;DHT22;6514;48.606;9.222;2023-04-01T17:00:23;10.20;99.90
12893;DHT22;6514;48.606;9.222;2023-04-01T17:02:58;10.10;99.90
12893;DHT22;6514;48.606;9.222;2023-04-01T17:05:38;10.10;99.90
12893;DHT22;6514;48.606;9.222;2023-04-01T17:08:14;10.00;99.90
12893;DHT22;6514;48.606;9.222;2023-04-01T17:10:50;10.00;99.90
12893;DHT22;6514;48.606;9.222;2023-04-01T17:13:34;9.90;99.90
12893;DHT22;6514;48.606;9.222;2023-04-01T17:19:02;9.90;99.90
12893;DHT22;6514;48.606;9.222;2023-04-01T17:21:48;9.80;99.90
12893;DHT22;6514;48.606;9.222;2023-04-01T17:24:28;9.80;99.90
12893;DHT22;6514;48.606;9.222;2023-04-01T17:27:06;9.80;99.90
12893;DHT22;6514;48.606;9.222;2023-04-01T17:29:43;9.70;99.90
12893;DHT22;6514;48.606;9.222;2023-04-01T17:32:18;9.60;99.90
12893;DHT22;6514;48.606;9.222;2023-04-01T17:34:56;9.60;99.90
12893;DHT22;6514;48.606;9.222;2023-04-01T17:37:34;9.60;99.90
12893;DHT22;6514;48.606;9.222;2023-04-01T17:40:26;9.60;99.90
12893;DHT22;6514;48.606;9.222;2023-04-01T17:43:06;9.60;99.90
12893;DHT22;6514;48.606;9.222;2023-04-01T17:45:41;9.50;99.90
12893;DHT22;6514;48.606;9.222;2023-04-01T17:48:18;9.40;99.90
12893;DHT22;6514;48.606;9.222;2023-04-01T17:51:03;9.40;99.90
12893;DHT22;6514;48.606;9.222;2023-04-01T17:53:43;9.40;99.90
12893;DHT22;6514;48.606;9.222;2023-04-01T17:59:12;9.40;99.90
12893;DHT22;6514;48.606;9.222;2023-04-01T18:01:56;9.30;99.90
12893;DHT22;6514;48.606;9.222;2023-04-01T18:04:36;9.30;99.90
12893;DHT22;6514;48.606;9.222;2023-04-01T18:07:22;9.30;99.90
12893;DHT22;6514;48.606;9.222;2023-04-01T18:10:01;9.30;99.90
12893;DHT22;6514;48.606;9.222;2023-04-01T18:12:36;9.30;99.90
12893;DHT22;6514;48.606;9.222;2023-04-01T18:15:17;9.40;99.90
12893;DHT22;6514;48.606;9.222;2023-04-01T18:18:03;9.40;99.90
12893;DHT22;6514;48.606;9.222;2023-04-01T18:20:41;9.40;99.90
12893;DHT22;6514;48.606;9.222;2023-04-01T18:23:20;9.40;99.90
12893;DHT22;6514;48.606;9.222;2023-04-01T18:25:52;9.50;99.90
12893;DHT22;6514;48.606;9.222;2023-04-01T18:28:26;9.50;99.90
12893;DHT22;6514;48.606;9.222;2023-04-01T18:31:06;9.50;99.90
12893;DHT22;6514;48.606;9.222;2023-04-01T18:33:43;9.40;99.90
12893;DHT22;6514;48.606;9.222;2023-04-01T18:36:19;9.40;99.90
12893;DHT22;6514;48.606;9.222;2023-04-01T18:38:52;9.40;99.90